Time;durP1;ratioP1;P1;durP2;ratioP2;P2;SDS_P1;SDS_P2;PMS_P1;PMS_P2;Temp;Humidity;BMP_temperature;BMP_pressure;BME280_temperature;BME280_humidity;BME280_pressure;Samples;Min_cycle;Max_cycle;Signal;HPM_P1;HPM_P2
2021/07/10 00:05:55;;;;;;;8.10;6.30;;;;;;;19.50;100.00;100341.63;716622;1177;114635;-83
2021/07/10 00:20:58;;;;;;;19.35;7.85;;;;;;;19.52;100.00;100351.06;717150;1200;114414;-82
2021/07/10 00:36:00;;;;;;;13.93;7.85;;;;;;;19.51;100.00;100336.11;717079;1175;114419;-83
2021/07/10 00:51:02;;;;;;;13.50;10.18;;;;;;;19.42;100.00;100351.38;716699;1200;114032;-83
2021/07/10 01:06:04;;;;;;;17.75;12.35;;;;;;;19.38;100.00;100334.16;716714;1188;115670;-83
2021/07/10 01:21:07;;;;;;;26.75;16.73;;;;;;;19.41;100.00;100336.45;716095;1199;114758;-83
2021/07/10 01:36:09;;;;;;;33.23;19.83;;;;;;;19.53;100.00;100336.75;716550;1177;114815;-83
2021/07/10 01:51:11;;;;;;;39.18;22.78;;;;;;;19.60;100.00;100342.13;716033;1200;114182;-83
2021/07/10 02:06:14;;;;;;;39.98;23.28;;;;;;;19.66;100.00;100343.98;716445;1177;114187;-83
2021/07/10 02:21:16;;;;;;;42.83;25.13;;;;;;;19.70;100.00;100345.23;716264;1199;114681;-85
2021/07/10 02:36:19;;;;;;;42.90;24.77;;;;;;;19.77;100.00;100359.44;716817;1203;114998;-84
2021/07/10 02:51:21;;;;;;;44.90;24.98;;;;;;;19.83;100.00;100378.34;716607;1199;114546;-83
2021/07/10 03:06:24;;;;;;;43.40;25.73;;;;;;;19.70;100.00;100366.53;717220;1203;114234;-84
2021/07/10 03:21:27;;;;;;;45.87;24.77;;;;;;;19.76;100.00;100376.41;716760;1200;114269;-83
2021/07/10 03:36:29;;;;;;;39.50;24.43;;;;;;;19.71;100.00;100348.73;716715;1174;114827;-84
2021/07/10 03:51:31;;;;;;;37.35;23.28;;;;;;;19.70;100.00;100358.55;716495;1199;114347;-83
2021/07/10 04:06:34;;;;;;;32.95;21.05;;;;;;;19.67;100.00;100358.94;716976;1200;115340;-85
2021/07/10 04:21:36;;;;;;;31.30;20.30;;;;;;;19.80;100.00;100374.19;716849;1200;114567;-82
2021/07/10 04:36:38;;;;;;;26.50;17.03;;;;;;;19.90;100.00;100380.03;717009;1200;115585;-83
2021/07/10 04:51:40;;;;;;;29.43;15.43;;;;;;;19.96;100.00;100370.44;717023;1200;113735;-83
2021/07/10 05:06:43;;;;;;;20.63;13.13;;;;;;;19.89;100.00;100382.89;716955;1181;114238;-84
2021/07/10 05:21:45;;;;;;;10.90;9.03;;;;;;;19.63;100.00;100390.42;717025;1199;114189;-84
2021/07/10 05:36:48;;;;;;;13.40;10.63;;;;;;;19.35;100.00;100376.30;716813;1200;114051;-83
2021/07/10 05:51:50;;;;;;;11.17;9.00;;;;;;;19.07;100.00;100399.13;716333;1176;114808;-82
2021/07/10 06:06:52;;;;;;;11.33;5.98;;;;;;;18.71;100.00;100437.09;715991;1200;114170;-83
2021/07/10 06:21:54;;;;;;;7.20;4.30;;;;;;;18.59;100.00;100452.67;715430;1199;115384;-84
2021/07/10 06:36:57;;;;;;;7.50;4.05;;;;;;;18.08;100.00;100468.48;714992;1199;115561;-80
2021/07/10 06:51:59;;;;;;;5.40;4.27;;;;;;;18.03;100.00;100469.03;715727;1199;114487;-78
2021/07/10 07:07:01;;;;;;;6.60;4.40;;;;;;;18.22;100.00;100474.84;714181;1200;113902;-78
2021/07/10 07:22:04;;;;;;;12.30;5.93;;;;;;;18.46;100.00;100463.13;714565;1199;114001;-84
2021/07/10 07:37:06;;;;;;;6.03;5.43;;;;;;;18.57;100.00;100502.53;714780;1200;115471;-78
2021/07/10 07:52:09;;;;;;;8.63;6.60;;;;;;;18.57;100.00;100504.38;716290;1199;113994;-81
2021/07/10 08:07:11;;;;;;;8.57;7.13;;;;;;;18.76;100.00;100513.61;716659;1200;114175;-74
2021/07/10 08:22:13;;;;;;;10.40;8.30;;;;;;;18.68;100.00;100533.13;715053;1203;114641;-74
2021/07/10 08:37:16;;;;;;;7.78;6.95;;;;;;;18.99;100.00;100532.16;714697;1200;115082;-74
2021/07/10 08:52:19;;;;;;;6.75;6.05;;;;;;;18.92;100.00;100540.02;714424;1203;113997;-75
2021/07/10 09:07:22;;;;;;;5.85;4.90;;;;;;;18.95;100.00;100546.80;714388;1199;115271;-74
2021/07/10 09:22:28;;;;;;;9.38;6.25;;;;;;;19.05;100.00;100557.17;714294;1200;115201;-73
2021/07/10 09:37:30;;;;;;;4.67;3.33;;;;;;;18.92;100.00;100577.23;714159;1200;114065;-73
2021/07/10 09:52:42;;;;;;;4.83;2.50;;;;;;;20.38;100.00;100572.94;714233;1199;115362;-74
2021/07/10 10:07:49;;;;;;;3.40;3.03;;;;;;;20.24;100.00;100595.95;714595;1200;114945;-74
2021/07/10 10:22:52;;;;;;;3.15;2.30;;;;;;;20.26;100.00;100615.25;714202;1199;115376;-74
2021/07/10 10:37:56;;;;;;;4.58;2.28;;;;;;;19.86;100.00;100638.80;714123;1199;115086;-73
2021/07/10 10:52:59;;;;;;;5.13;2.60;;;;;;;19.59;100.00;100633.95;714000;1199;114101;-73
2021/07/10 11:08:19;;;;;;;2.88;2.55;;;;;;;20.41;100.00;100645.28;714285;1199;114625;-74
2021/07/10 11:23:34;;;;;;;2.33;2.00;;;;;;;21.34;100.00;100647.00;714378;1200;114687;-73
2021/07/10 11:38:40;;;;;;;2.33;2.13;;;;;;;20.84;100.00;100659.59;714086;1200;114078;-73
2021/07/10 11:53:42;;;;;;;3.25;2.10;;;;;;;20.65;100.00;100663.73;714542;1192;113862;-74
2021/07/10 12:08:58;;;;;;;2.17;1.97;;;;;;;20.67;100.00;100673.19;714577;1202;114425;-74
2021/07/10 12:24:01;;;;;;;2.35;2.00;;;;;;;21.14;100.00;100678.06;714767;1178;115050;-75
2021/07/10 12:39:15;;;;;;;2.95;2.13;;;;;;;21.34;100.00;100684.35;714253;1200;114404;-74
2021/07/10 12:54:33;;;;;;;4.07;2.60;;;;;;;22.04;100.00;100686.09;714414;1174;114155;-73
2021/07/10 13:09:39;;;;;;;4.83;3.30;;;;;;;21.72;100.00;100689.30;714379;1199;114139;-77
2021/07/10 13:24:41;;;;;;;5.60;3.00;;;;;;;21.30;100.00;100688.44;714220;1199;115237;-76
2021/07/10 13:39:47;;;;;;;9.00;4.85;;;;;;;21.55;100.00;100690.63;714260;1176;113962;-73
2021/07/10 13:54:57;;;;;;;3.35;2.63;;;;;;;21.51;100.00;100694.69;714060;1200;115250;-74
2021/07/10 14:10:00;;;;;;;3.88;3.10;;;;;;;21.62;100.00;100702.18;713960;1200;115488;-74
2021/07/10 14:25:06;;;;;;;7.40;4.40;;;;;;;21.99;100.00;100692.05;714374;1200;114376;-74
2021/07/10 14:40:09;;;;;;;3.43;3.13;;;;;;;22.84;100.00;100680.86;714367;1203;114568;-74
2021/07/10 14:55:11;;;;;;;4.20;2.90;;;;;;;23.34;100.00;100669.69;714209;1205;114488;-75
2021/07/10 15:10:16;;;;;;;4.10;2.40;;;;;;;24.12;100.00;100673.28;714521;1199;115423;-74
2021/07/10 15:25:25;;;;;;;4.58;2.60;;;;;;;23.99;100.00;100668.01;714590;1199;114775;-74
2021/07/10 15:40:28;;;;;;;5.63;2.13;;;;;;;24.07;100.00;100647.16;714426;1199;114804;-75
2021/07/10 15:55:31;;;;;;;3.40;2.53;;;;;;;24.28;100.00;100639.78;714076;1202;114524;-75
2021/07/10 16:10:34;;;;;;;6.03;2.93;;;;;;;24.28;99.78;100631.73;714124;1199;114822;-73
2021/07/10 16:25:36;;;;;;;3.03;2.73;;;;;;;24.09;98.70;100630.86;713845;1199;113996;-73
2021/07/10 16:40:38;;;;;;;5.87;3.50;;;;;;;23.82;98.93;100632.84;713926;1189;114984;-73
2021/07/10 16:55:40;;;;;;;5.78;3.58;;;;;;;23.92;98.69;100635.91;714000;1200;113649;-73
2021/07/10 17:10:42;;;;;;;4.35;3.50;;;;;;;23.41;100.00;100654.45;713923;1199;113982;-72
2021/07/10 17:25:45;;;;;;;4.25;3.60;;;;;;;23.31;100.00;100655.93;713906;1203;114524;-75
2021/07/10 17:40:47;;;;;;;3.30;2.87;;;;;;;22.66;100.00;100665.46;714012;1200;113795;-72
2021/07/10 17:55:51;;;;;;;3.03;2.67;;;;;;;22.36;100.00;100668.52;713970;1178;114152;-75
2021/07/10 18:10:54;;;;;;;4.10;3.20;;;;;;;22.06;100.00;100668.84;713840;1199;114847;-75
2021/07/10 18:25:56;;;;;;;3.65;2.50;;;;;;;21.75;100.00;100675.53;713831;1200;114902;-74
2021/07/10 18:40:59;;;;;;;6.53;4.23;;;;;;;21.70;100.00;100683.31;713807;1180;113845;-75
2021/07/10 18:56:04;;;;;;;5.05;3.60;;;;;;;21.67;100.00;100694.41;714053;1199;115171;-73
2021/07/10 19:11:06;;;;;;;12.00;8.13;;;;;;;21.53;100.00;100714.83;713948;1176;113954;-73
2021/07/10 19:26:09;;;;;;;17.30;12.07;;;;;;;21.38;100.00;100712.29;714100;1199;114730;-73
2021/07/10 19:41:12;;;;;;;9.98;5.20;;;;;;;21.07;100.00;100732.17;714004;1199;115951;-72
2021/07/10 19:56:14;;;;;;;16.33;10.48;;;;;;;20.70;100.00;100736.80;714639;1177;116081;-73
2021/07/10 20:11:16;;;;;;;10.47;6.70;;;;;;;20.39;100.00;100740.58;714933;1202;116129;-73
2021/07/10 20:26:18;;;;;;;6.80;4.87;;;;;;;19.97;100.00;100749.29;714420;1200;115706;-72
2021/07/10 20:41:25;;;;;;;8.27;5.73;;;;;;;19.72;100.00;100739.75;714901;1174;114143;-74
2021/07/10 20:56:27;;;;;;;10.27;7.27;;;;;;;19.55;100.00;100739.11;714976;1200;114861;-73
2021/07/10 21:11:30;;;;;;;6.40;5.65;;;;;;;19.33;100.00;100738.17;714505;1175;115001;-71
2021/07/10 21:26:33;;;;;;;12.08;6.55;;;;;;;19.07;100.00;100741.24;714804;1200;113996;-74
2021/07/10 21:41:35;;;;;;;17.60;9.83;;;;;;;18.88;100.00;100758.50;714722;1200;114415;-72
2021/07/10 21:56:37;;;;;;;12.40;7.38;;;;;;;18.68;100.00;100753.66;715040;1200;114242;-73
2021/07/10 22:11:43;;;;;;;9.33;6.17;;;;;;;18.29;100.00;100752.75;714829;1199;114269;-73
2021/07/10 22:26:47;;;;;;;8.63;6.05;;;;;;;17.96;100.00;100749.41;714842;1193;114513;-72
2021/07/10 22:41:49;;;;;;;9.48;6.48;;;;;;;17.81;100.00;100749.28;715004;1177;114041;-72
2021/07/10 22:56:52;;;;;;;11.70;8.05;;;;;;;17.72;100.00;100751.13;714341;1203;115025;-74
2021/07/10 23:11:55;;;;;;;9.40;7.30;;;;;;;17.52;100.00;100761.30;714184;1200;114594;-71
2021/07/10 23:26:57;;;;;;;9.60;8.27;;;;;;;17.45;100.00;100768.29;714408;1199;115181;-72
2021/07/10 23:41:59;;;;;;;12.27;8.43;;;;;;;17.32;100.00;100771.45;714416;1202;114755;-72
2021/07/10 23:57:01;;;;;;;11.73;9.00;;;;;;;17.07;100.00;100758.20;714300;1203;114514;-74
